Time;durP1;ratioP1;P1;durP2;ratioP2;P2;SDS_P1;SDS_P2;PMS_P1;PMS_P2;Temp;Humidity;BMP_temperature;BMP_pressure;BME280_temperature;BME280_humidity;BME280_pressure;Samples;Min_cycle;Max_cycle;Signal;HPM_P1;HPM_P2
2021/03/17 00:00:31;;;;;;;5.95;2.20;;;17.00;58.00;;;;;;4954393;29;20430;-72
2021/03/17 00:02:57;;;;;;;5.90;2.47;;;17.00;57.90;;;;;;4937368;29;20027;-72
2021/03/17 00:05:31;;;;;;;5.00;2.33;;;17.00;57.80;;;;;;4955313;28;20031;-73
2021/03/17 00:07:58;;;;;;;5.25;2.22;;;17.00;57.90;;;;;;4954901;29;20035;-72
2021/03/17 00:10:25;;;;;;;5.80;2.58;;;16.90;57.80;;;;;;4954581;29;20486;-73
2021/03/17 00:12:53;;;;;;;5.85;2.25;;;16.90;57.90;;;;;;4954696;29;20372;-72
2021/03/17 00:15:20;;;;;;;7.38;1.98;;;16.90;57.80;;;;;;4953739;28;20114;-72
2021/03/17 00:17:46;;;;;;;6.22;2.28;;;16.90;57.70;;;;;;4953994;29;20102;-73
2021/03/17 00:20:12;;;;;;;5.60;2.13;;;16.90;57.70;;;;;;4955101;29;20055;-73
2021/03/17 00:22:38;;;;;;;5.72;1.98;;;16.90;57.50;;;;;;4954705;29;20393;-73
2021/03/17 00:25:04;;;;;;;5.55;2.10;;;16.90;57.60;;;;;;4955053;29;20031;-73
2021/03/17 00:27:30;;;;;;;6.38;2.10;;;16.90;57.50;;;;;;4936828;29;20045;-73
2021/03/17 00:29:56;;;;;;;4.68;1.80;;;16.90;57.60;;;;;;4954705;29;20074;-73
2021/03/17 00:32:22;;;;;;;6.40;1.92;;;16.90;57.60;;;;;;4954977;29;20023;-73
2021/03/17 00:34:48;;;;;;;6.25;2.13;;;16.80;57.60;;;;;;4954379;29;20506;-73
2021/03/17 00:37:14;;;;;;;5.07;2.08;;;16.80;57.70;;;;;;4954245;28;20398;-72
2021/03/17 00:39:40;;;;;;;6.03;2.03;;;16.80;57.70;;;;;;4954494;29;20429;-72
2021/03/17 00:42:06;;;;;;;5.70;1.90;;;16.80;57.60;;;;;;4953999;28;20038;-72
2021/03/17 00:44:32;;;;;;;5.50;1.80;;;16.80;57.60;;;;;;4937445;29;20035;-73
2021/03/17 00:46:57;;;;;;;5.45;1.80;;;16.80;57.60;;;;;;4936737;29;20062;-72
2021/03/17 00:49:24;;;;;;;5.07;1.80;;;16.70;57.50;;;;;;4953560;29;20039;-72
2021/03/17 00:51:50;;;;;;;6.13;1.92;;;16.80;57.50;;;;;;4953706;29;20094;-72
2021/03/17 00:54:16;;;;;;;5.90;1.77;;;16.70;57.50;;;;;;4954374;29;20111;-72
2021/03/17 00:56:42;;;;;;;4.28;1.70;;;16.70;57.40;;;;;;4954518;28;20479;-72
2021/03/17 00:59:08;;;;;;;4.57;1.70;;;16.70;57.30;;;;;;4954583;29;20210;-72
2021/03/17 01:01:34;;;;;;;4.18;1.88;;;16.70;57.30;;;;;;4936584;29;20023;-72
2021/03/17 01:04:00;;;;;;;6.60;1.85;;;16.70;57.20;;;;;;4954175;29;20103;-72
2021/03/17 01:06:26;;;;;;;4.88;1.70;;;16.70;57.20;;;;;;4954002;28;20502;-72
2021/03/17 01:08:52;;;;;;;3.97;1.60;;;16.60;57.10;;;;;;4937293;29;20497;-72
2021/03/17 01:11:18;;;;;;;4.82;1.73;;;16.60;57.20;;;;;;4954711;29;20090;-72
2021/03/17 01:13:44;;;;;;;6.13;1.92;;;16.60;57.60;;;;;;4954126;29;20538;-72
2021/03/17 01:16:10;;;;;;;3.58;1.60;;;16.60;57.00;;;;;;4937210;29;20031;-72
2021/03/17 01:18:36;;;;;;;3.22;1.60;;;16.60;57.00;;;;;;4936795;29;20035;-72
2021/03/17 01:21:02;;;;;;;4.35;1.80;;;16.60;57.10;;;;;;4954296;29;20112;-72
2021/03/17 01:23:28;;;;;;;6.43;1.70;;;16.60;57.00;;;;;;4937114;29;20537;-72
2021/03/17 01:25:53;;;;;;;6.47;1.90;;;16.60;57.00;;;;;;4936361;29;20051;-73
2021/03/17 01:28:19;;;;;;;4.28;1.63;;;16.50;56.80;;;;;;4953612;29;20066;-72
2021/03/17 01:30:55;;;;;;;6.95;1.58;;;16.50;56.90;;;;;;4954366;29;20034;-72
2021/03/17 01:33:26;;;;;;;4.40;1.42;;;16.50;56.80;;;;;;4936773;29;20144;-72
2021/03/17 01:35:51;;;;;;;4.53;1.63;;;16.50;57.10;;;;;;4954306;28;20034;-72
2021/03/17 01:38:17;;;;;;;4.93;1.40;;;16.50;56.70;;;;;;4953751;29;20027;-72
2021/03/17 01:40:45;;;;;;;6.15;1.98;;;16.60;56.80;;;;;;4954238;29;20098;-72
2021/03/17 01:43:12;;;;;;;4.95;1.50;;;16.60;56.60;;;;;;4953848;29;20405;-72
2021/03/17 01:45:40;;;;;;;4.82;1.48;;;16.60;56.60;;;;;;4952296;28;20031;-72
2021/03/17 01:48:06;;;;;;;4.95;1.60;;;16.60;56.50;;;;;;4936279;29;20078;-72
2021/03/17 01:50:35;;;;;;;3.90;1.55;;;16.60;56.70;;;;;;4935361;29;20047;-73
2021/03/17 01:53:06;;;;;;;6.38;1.63;;;16.50;56.70;;;;;;4955643;28;20027;-73
2021/03/17 01:55:32;;;;;;;4.70;1.48;;;16.50;56.70;;;;;;4940522;29;20027;-72
2021/03/17 01:57:59;;;;;;;4.47;1.50;;;16.50;56.80;;;;;;4956907;29;20039;-72
2021/03/17 02:00:25;;;;;;;5.38;1.50;;;16.50;56.80;;;;;;4957364;29;20498;-72
2021/03/17 02:02:53;;;;;;;3.97;1.45;;;16.50;56.70;;;;;;4940345;29;20070;-72
2021/03/17 02:05:25;;;;;;;5.30;1.73;;;16.50;56.80;;;;;;4940503;28;20039;-72
2021/03/17 02:07:55;;;;;;;3.72;1.42;;;16.50;56.70;;;;;;4957615;29;20118;-72
2021/03/17 02:10:22;;;;;;;7.03;1.80;;;16.40;56.60;;;;;;4957255;29;20402;-72
2021/03/17 02:12:53;;;;;;;4.43;1.52;;;16.50;56.70;;;;;;4939782;29;20031;-72
2021/03/17 02:15:46;;;;;;;3.28;1.40;;;16.40;56.60;;;;;;4957330;28;20047;-72
2021/03/17 02:18:27;;;;;;;3.38;1.17;;;16.40;56.40;;;;;;4957461;29;20059;-72
2021/03/17 02:21:25;;;;;;;3.58;1.42;;;16.40;56.30;;;;;;4957603;29;20538;-72
2021/03/17 02:24:17;;;;;;;4.55;1.30;;;16.40;56.50;;;;;;4957327;29;20031;-72
2021/03/17 02:27:13;;;;;;;5.80;1.60;;;16.40;56.30;;;;;;4926481;29;20459;-72
2021/03/17 02:30:13;;;;;;;3.42;1.48;;;16.40;56.50;;;;;;4939983;29;20031;-72
2021/03/17 02:32:57;;;;;;;4.63;1.40;;;16.40;56.40;;;;;;4957417;29;20034;-72
2021/03/17 02:35:27;;;;;;;4.55;1.40;;;16.40;56.50;;;;;;4956960;28;20030;-72
2021/03/17 02:37:55;;;;;;;5.82;1.55;;;16.40;56.40;;;;;;4956323;29;20028;-72
2021/03/17 02:40:37;;;;;;;3.97;1.15;;;16.40;56.30;;;;;;4939807;29;20027;-72
2021/03/17 02:43:08;;;;;;;3.00;1.40;;;16.30;56.20;;;;;;4957009;29;20102;-73
2021/03/17 02:45:37;;;;;;;4.05;1.50;;;16.30;56.30;;;;;;4956819;28;20390;-72
2021/03/17 02:48:07;;;;;;;4.93;1.60;;;16.30;56.70;;;;;;4956776;29;20043;-73
2021/03/17 02:50:35;;;;;;;4.68;1.70;;;16.30;56.70;;;;;;4939587;29;20023;-72
2021/03/17 02:53:03;;;;;;;5.25;1.30;;;16.30;56.30;;;;;;4955753;29;20031;-73
2021/03/17 02:55:33;;;;;;;4.60;1.50;;;16.30;56.20;;;;;;4956546;28;20027;-72
2021/03/17 02:58:01;;;;;;;5.55;1.42;;;16.40;56.20;;;;;;4955439;29;20398;-72
2021/03/17 03:00:29;;;;;;;3.92;1.30;;;16.40;56.10;;;;;;4956697;29;20028;-73
2021/03/17 03:02:57;;;;;;;5.88;1.50;;;16.40;56.10;;;;;;4956444;29;20039;-72
2021/03/17 03:05:24;;;;;;;3.63;1.30;;;16.40;56.20;;;;;;4955097;28;20047;-73
2021/03/17 03:07:52;;;;;;;4.35;1.25;;;16.30;56.20;;;;;;4956133;29;20039;-73
2021/03/17 03:10:22;;;;;;;4.57;1.45;;;16.30;56.20;;;;;;4938959;29;20027;-73
2021/03/17 03:12:49;;;;;;;5.50;1.38;;;16.30;56.40;;;;;;4956397;29;20046;-73
2021/03/17 03:15:19;;;;;;;5.63;1.15;;;16.30;56.30;;;;;;4939009;28;20439;-72
2021/03/17 03:17:46;;;;;;;3.65;1.45;;;16.30;56.30;;;;;;4938711;29;20031;-72
2021/03/17 03:20:17;;;;;;;5.10;1.20;;;16.30;56.30;;;;;;4956221;29;20054;-72
2021/03/17 03:22:45;;;;;;;5.28;1.48;;;16.20;56.40;;;;;;4956182;29;20035;-72
2021/03/17 03:25:12;;;;;;;4.85;1.30;;;16.20;56.40;;;;;;4938898;28;20121;-73
2021/03/17 03:27:38;;;;;;;4.57;1.58;;;16.20;56.40;;;;;;4955238;28;20146;-72
2021/03/17 03:30:16;;;;;;;4.82;1.50;;;16.20;56.20;;;;;;4956000;29;20086;-72
2021/03/17 03:32:43;;;;;;;3.53;1.30;;;16.30;56.10;;;;;;4956031;29;20031;-72
2021/03/17 03:35:11;;;;;;;2.92;1.15;;;16.20;56.10;;;;;;4938670;28;20026;-72
2021/03/17 03:37:38;;;;;;;3.75;1.52;;;16.20;56.10;;;;;;4956165;29;20034;-72
2021/03/17 03:40:11;;;;;;;4.07;1.30;;;16.20;56.20;;;;;;4938586;29;20419;-72
2021/03/17 03:42:37;;;;;;;4.82;1.38;;;16.10;56.10;;;;;;4938542;29;20109;-72
2021/03/17 03:45:07;;;;;;;4.07;1.40;;;16.20;56.30;;;;;;4938314;29;20062;-72
2021/03/17 03:47:33;;;;;;;2.80;1.17;;;16.20;56.30;;;;;;4954852;29;20058;-72
2021/03/17 03:50:00;;;;;;;4.53;1.40;;;16.10;56.20;;;;;;4954855;29;20019;-72
2021/03/17 03:52:34;;;;;;;6.05;1.65;;;16.10;56.20;;;;;;4954861;29;20023;-72
2021/03/17 03:55:21;;;;;;;4.63;1.50;;;16.10;56.20;;;;;;4955663;29;20025;-72
2021/03/17 03:57:49;;;;;;;3.67;1.20;;;16.10;56.30;;;;;;4955522;29;20031;-72
2021/03/17 04:00:26;;;;;;;3.65;1.30;;;16.10;56.20;;;;;;4955236;29;20023;-72
2021/03/17 04:02:55;;;;;;;2.83;1.20;;;16.00;56.20;;;;;;4955412;29;20367;-72
2021/03/17 04:05:32;;;;;;;3.63;1.30;;;16.10;56.30;;;;;;4955392;28;20054;-72
2021/03/17 04:08:03;;;;;;;4.65;1.40;;;16.00;56.30;;;;;;4955288;29;20086;-72
2021/03/17 04:10:29;;;;;;;3.83;1.17;;;16.00;56.20;;;;;;4955073;29;20027;-72
2021/03/17 04:12:56;;;;;;;4.47;1.23;;;16.00;56.30;;;;;;4955277;29;20460;-72
2021/03/17 04:15:23;;;;;;;5.90;1.40;;;16.00;56.40;;;;;;4955173;28;20483;-72
2021/03/17 04:17:58;;;;;;;3.70;1.27;;;16.00;56.30;;;;;;4953627;29;20038;-72
2021/03/17 04:20:37;;;;;;;3.70;1.10;;;15.90;56.20;;;;;;4955012;29;20506;-72
2021/03/17 04:23:07;;;;;;;4.53;1.40;;;15.90;56.30;;;;;;4955097;29;20027;-72
2021/03/17 04:25:35;;;;;;;3.30;1.10;;;16.00;56.40;;;;;;4954368;28;20335;-72
2021/03/17 04:28:02;;;;;;;3.40;1.20;;;15.90;56.30;;;;;;4954360;29;20093;-72
2021/03/17 04:30:28;;;;;;;5.13;1.20;;;15.90;56.40;;;;;;4954734;29;20030;-72
2021/03/17 04:32:57;;;;;;;5.85;1.25;;;15.90;56.40;;;;;;4937734;29;20027;-72
2021/03/17 04:35:23;;;;;;;4.57;1.20;;;15.90;56.50;;;;;;4937706;28;20030;-72
2021/03/17 04:37:54;;;;;;;4.30;1.30;;;15.80;56.40;;;;;;4937209;29;20031;-72
2021/03/17 04:40:20;;;;;;;4.75;1.17;;;15.80;56.40;;;;;;4937638;29;20043;-72
2021/03/17 04:42:46;;;;;;;3.17;1.30;;;15.80;56.40;;;;;;4954890;29;20031;-72
2021/03/17 04:45:14;;;;;;;4.13;1.20;;;15.80;56.30;;;;;;4937247;28;20062;-72
2021/03/17 04:47:43;;;;;;;3.92;1.20;;;15.80;56.40;;;;;;4937248;29;20035;-72
2021/03/17 04:50:12;;;;;;;4.03;1.33;;;15.80;56.30;;;;;;4954828;29;20042;-72
2021/03/17 04:52:40;;;;;;;3.72;1.20;;;15.80;56.30;;;;;;4954695;29;20023;-72
2021/03/17 04:55:06;;;;;;;2.80;1.08;;;15.80;56.40;;;;;;4954570;28;20024;-72
2021/03/17 04:57:35;;;;;;;6.25;1.23;;;15.80;56.30;;;;;;4954923;29;20077;-72
2021/03/17 05:00:03;;;;;;;3.33;1.10;;;15.80;56.30;;;;;;4953958;29;20390;-72
2021/03/17 05:02:30;;;;;;;3.78;1.20;;;15.80;56.40;;;;;;4954385;29;20110;-72
2021/03/17 05:04:57;;;;;;;3.60;1.10;;;15.80;56.30;;;;;;4937062;29;20058;-72
2021/03/17 05:07:25;;;;;;;5.35;1.38;;;15.80;56.30;;;;;;4954365;28;20031;-72
2021/03/17 05:09:52;;;;;;;4.00;1.10;;;15.80;56.30;;;;;;4954252;29;20034;-72
2021/03/17 05:12:19;;;;;;;4.57;1.15;;;15.70;56.30;;;;;;4937053;29;20110;-72
2021/03/17 05:14:46;;;;;;;4.40;1.08;;;15.70;56.40;;;;;;4954247;29;20024;-72
2021/03/17 05:17:12;;;;;;;4.07;1.25;;;15.70;56.40;;;;;;4954076;28;20039;-72
2021/03/17 05:19:40;;;;;;;3.35;1.08;;;15.70;56.40;;;;;;4954819;29;20028;-72
2021/03/17 05:22:09;;;;;;;3.15;0.95;;;15.70;56.50;;;;;;4947478;29;20066;-72
2021/03/17 05:24:35;;;;;;;6.68;1.10;;;15.70;56.20;;;;;;4933391;29;20043;-72
2021/03/17 05:27:07;;;;;;;3.33;1.20;;;15.70;56.30;;;;;;4935541;29;20444;-72
2021/03/17 05:29:36;;;;;;;7.75;1.10;;;15.80;56.40;;;;;;4939135;29;20027;-72
2021/03/17 05:32:03;;;;;;;2.65;0.98;;;15.70;56.30;;;;;;4957158;29;20063;-72
2021/03/17 05:34:28;;;;;;;3.28;1.00;;;15.70;56.40;;;;;;4958347;28;20023;-72
2021/03/17 05:36:54;;;;;;;5.90;1.10;;;15.70;56.20;;;;;;4958052;28;20360;-72
2021/03/17 05:39:20;;;;;;;2.58;1.00;;;15.70;56.30;;;;;;4958135;29;20029;-73
2021/03/17 05:41:47;;;;;;;3.78;1.10;;;15.70;56.30;;;;;;4957806;29;20023;-73
2021/03/17 05:44:13;;;;;;;4.93;1.25;;;15.70;56.30;;;;;;4957246;29;20491;-72
2021/03/17 05:46:42;;;;;;;7.35;1.10;;;15.70;56.50;;;;;;4957813;28;20031;-71
2021/03/17 05:49:09;;;;;;;6.15;1.13;;;15.70;56.30;;;;;;4957309;29;20058;-71
2021/03/17 05:51:35;;;;;;;7.57;1.50;;;15.70;56.50;;;;;;4957197;29;20027;-70
2021/03/17 05:54:01;;;;;;;9.32;1.35;;;15.70;56.50;;;;;;4958422;29;20038;-72
2021/03/17 05:56:30;;;;;;;6.68;1.67;;;15.70;56.50;;;;;;4940467;29;20027;-70
2021/03/17 05:58:59;;;;;;;11.30;1.35;;;15.70;56.30;;;;;;4957989;29;20023;-72
2021/03/17 06:01:25;;;;;;;5.68;1.10;;;15.70;56.30;;;;;;4941071;29;20101;-73
2021/03/17 06:03:52;;;;;;;5.35;1.65;;;15.70;56.30;;;;;;4957682;29;20197;-72
2021/03/17 06:06:18;;;;;;;8.80;1.50;;;15.70;56.10;;;;;;4957684;28;20019;-70
2021/03/17 06:08:46;;;;;;;6.13;1.42;;;15.70;56.20;;;;;;4957656;29;20038;-74
2021/03/17 06:11:15;;;;;;;7.75;1.50;;;15.70;56.40;;;;;;4957097;29;20035;-68
2021/03/17 06:13:48;;;;;;;6.70;1.33;;;15.70;56.40;;;;;;4957333;29;20038;-78
2021/03/17 06:16:16;;;;;;;9.40;1.60;;;15.70;56.50;;;;;;4939133;29;20497;-73
2021/03/17 06:18:45;;;;;;;7.63;1.30;;;15.70;56.50;;;;;;4957782;29;20206;-72
2021/03/17 06:21:18;;;;;;;6.95;1.50;;;15.70;56.70;;;;;;4957184;29;20111;-73
2021/03/17 06:23:44;;;;;;;8.13;1.48;;;15.70;56.70;;;;;;4957495;29;20378;-72
2021/03/17 06:26:10;;;;;;;9.57;1.40;;;15.70;56.90;;;;;;4939491;29;20046;-71
2021/03/17 06:28:36;;;;;;;5.88;1.20;;;15.70;56.90;;;;;;4956791;29;20035;-71
2021/03/17 06:31:03;;;;;;;7.10;1.50;;;15.70;56.80;;;;;;4939369;29;20118;-75
2021/03/17 06:33:29;;;;;;;7.57;1.60;;;15.70;56.70;;;;;;4948088;29;20430;-73
2021/03/17 06:36:27;;;;;;;6.25;1.33;;;15.70;56.70;;;;;;4938286;29;20068;-72
2021/03/17 06:39:10;;;;;;;10.52;1.48;;;15.70;56.50;;;;;;4878697;29;20177;-72
2021/03/17 06:41:50;;;;;;;6.32;1.20;;;15.60;56.40;;;;;;4957026;29;20027;-73
2021/03/17 06:44:21;;;;;;;9.18;1.50;;;15.60;56.40;;;;;;4937962;29;20173;-71
2021/03/17 06:47:10;;;;;;;6.72;1.50;;;15.60;56.30;;;;;;4920495;29;20103;-72
2021/03/17 06:49:37;;;;;;;8.07;1.30;;;15.60;56.40;;;;;;4906655;29;20031;-71
2021/03/17 06:52:27;;;;;;;4.20;1.17;;;15.60;56.30;;;;;;4920552;29;20024;-71
2021/03/17 06:55:13;;;;;;;6.85;1.83;;;15.60;56.20;;;;;;4945784;29;20027;-71
2021/03/17 06:57:42;;;;;;;8.88;1.45;;;15.60;56.20;;;;;;4955851;29;20038;-70
2021/03/17 07:00:30;;;;;;;6.20;1.10;;;15.60;56.50;;;;;;4955637;29;20422;-71
2021/03/17 07:03:01;;;;;;;9.93;1.40;;;15.80;56.20;;;;;;4956061;29;20030;-71
2021/03/17 07:05:34;;;;;;;5.10;1.13;;;15.80;56.10;;;;;;4956402;28;20102;-71
2021/03/17 07:08:01;;;;;;;8.50;1.30;;;15.90;56.10;;;;;;4955286;29;20490;-71
2021/03/17 07:10:41;;;;;;;9.25;1.55;;;16.00;56.10;;;;;;4950130;29;20023;-71
2021/03/17 07:13:10;;;;;;;11.00;1.55;;;16.10;55.70;;;;;;4954090;29;20106;-72
2021/03/17 07:15:38;;;;;;;10.95;1.45;;;16.20;55.60;;;;;;4939161;29;20457;-73
2021/03/17 07:18:23;;;;;;;7.30;1.33;;;16.10;55.70;;;;;;4938839;29;20027;-72
2021/03/17 07:20:55;;;;;;;6.15;1.40;;;16.10;55.50;;;;;;4956051;29;20055;-72
2021/03/17 07:23:45;;;;;;;7.68;1.30;;;16.20;55.60;;;;;;4939250;29;20028;-72
2021/03/17 07:26:25;;;;;;;6.78;1.33;;;16.20;55.30;;;;;;4938769;29;20058;-72
2021/03/17 07:29:12;;;;;;;7.43;1.65;;;16.20;55.20;;;;;;4956084;29;20027;-72
2021/03/17 07:31:40;;;;;;;5.75;1.33;;;16.20;55.20;;;;;;4956018;29;20020;-72
2021/03/17 07:34:19;;;;;;;7.03;1.40;;;16.30;55.10;;;;;;4955911;29;20047;-73
2021/03/17 07:36:48;;;;;;;7.05;1.60;;;16.30;55.00;;;;;;4938736;29;20082;-73
2021/03/17 07:39:22;;;;;;;5.85;1.08;;;16.30;55.00;;;;;;4955813;29;20073;-73
2021/03/17 07:41:50;;;;;;;7.32;1.10;;;16.30;54.90;;;;;;4938659;29;20086;-73
2021/03/17 07:44:16;;;;;;;6.43;1.20;;;16.30;54.90;;;;;;4955787;29;20023;-73
2021/03/17 07:46:44;;;;;;;5.43;1.15;;;16.30;54.80;;;;;;4955878;28;20040;-73
2021/03/17 07:49:10;;;;;;;4.65;1.38;;;16.30;54.90;;;;;;4956094;29;20378;-73
2021/03/17 07:51:40;;;;;;;6.65;1.20;;;16.30;54.80;;;;;;4938203;29;20158;-73
2021/03/17 07:54:07;;;;;;;5.57;1.20;;;16.30;54.70;;;;;;4938542;29;20019;-72
2021/03/17 07:56:33;;;;;;;5.68;1.20;;;16.30;54.80;;;;;;4955675;28;20026;-73
2021/03/17 07:58:59;;;;;;;3.95;1.23;;;16.30;54.80;;;;;;4938474;29;20035;-73
2021/03/17 08:01:26;;;;;;;3.22;1.08;;;16.30;54.80;;;;;;4955853;29;20026;-72
2021/03/17 08:03:51;;;;;;;4.57;1.13;;;16.30;54.90;;;;;;4938238;29;20090;-73
2021/03/17 08:06:21;;;;;;;5.55;1.10;;;16.20;54.80;;;;;;4938272;29;20426;-72
2021/03/17 08:08:48;;;;;;;4.80;1.02;;;16.20;54.90;;;;;;4938126;29;20033;-73
2021/03/17 08:11:19;;;;;;;3.50;1.10;;;16.20;54.90;;;;;;4955432;29;20027;-73
2021/03/17 08:13:48;;;;;;;3.63;1.10;;;16.20;55.00;;;;;;4955362;29;20023;-72
2021/03/17 08:16:18;;;;;;;5.57;1.17;;;16.10;54.80;;;;;;4955216;28;20035;-73
2021/03/17 08:18:45;;;;;;;3.03;1.05;;;16.20;54.80;;;;;;4937826;29;20118;-72
2021/03/17 08:21:11;;;;;;;4.90;1.38;;;16.10;54.70;;;;;;4955219;29;20479;-72
2021/03/17 08:23:38;;;;;;;5.45;1.17;;;16.10;54.70;;;;;;4955283;29;20486;-73
2021/03/17 08:26:04;;;;;;;7.65;1.10;;;16.10;54.70;;;;;;4937830;29;20048;-72
2021/03/17 08:28:29;;;;;;;4.32;1.00;;;16.10;54.50;;;;;;4955033;29;20038;-72
2021/03/17 08:30:57;;;;;;;3.67;1.00;;;16.10;54.50;;;;;;4938236;29;20109;-72
2021/03/17 08:33:38;;;;;;;4.22;1.10;;;16.10;54.50;;;;;;4955113;29;20110;-73
2021/03/17 08:36:11;;;;;;;;;;;16.10;54.50;;;;;;4955382;28;20530;-73
2021/03/17 08:38:50;;;;;;;2.58;1.08;;;16.10;54.40;;;;;;4937773;29;19906;-73
2021/03/17 08:41:37;;;;;;;5.03;1.60;;;16.10;54.30;;;;;;4937801;29;20490;-72
2021/03/17 08:44:13;;;;;;;4.88;1.50;;;16.10;54.30;;;;;;4941376;29;20508;-72
2021/03/17 08:46:39;;;;;;;4.68;1.45;;;16.10;54.20;;;;;;4954727;28;20463;-72
2021/03/17 08:49:06;;;;;;;4.55;1.42;;;16.00;54.20;;;;;;4937565;29;20027;-72
2021/03/17 08:51:47;;;;;;;4.05;1.40;;;16.00;54.40;;;;;;4954838;29;20027;-71
2021/03/17 08:54:46;;;;;;;3.35;1.25;;;16.10;54.10;;;;;;4954986;29;20019;-72
2021/03/17 08:57:14;;;;;;;6.67;1.23;;;16.20;54.00;;;;;;4907890;29;20376;-73
2021/03/17 08:59:47;;;;;;;4.10;1.30;;;16.20;54.00;;;;;;4937553;29;20278;-73
2021/03/17 09:02:36;;;;;;;4.45;1.20;;;16.20;53.80;;;;;;4936753;29;20077;-73
2021/03/17 09:05:04;;;;;;;3.08;1.13;;;16.20;53.60;;;;;;4944657;29;20071;-73
2021/03/17 09:07:34;;;;;;;2.72;1.00;;;16.30;53.80;;;;;;4954585;29;20027;-73
2021/03/17 09:10:13;;;;;;;4.13;1.15;;;16.30;53.70;;;;;;4954741;29;20019;-73
2021/03/17 09:12:39;;;;;;;3.40;1.30;;;16.30;53.80;;;;;;4937983;29;20027;-74
2021/03/17 09:15:13;;;;;;;5.72;1.40;;;16.30;53.60;;;;;;4954528;28;20038;-73
2021/03/17 09:17:56;;;;;;;3.08;1.10;;;16.30;53.80;;;;;;4955121;29;20032;-73
2021/03/17 09:20:24;;;;;;;3.00;1.13;;;16.40;53.70;;;;;;4954527;29;20371;-74
2021/03/17 09:23:08;;;;;;;3.17;0.93;;;16.30;53.80;;;;;;4954832;29;20023;-73
2021/03/17 09:25:43;;;;;;;3.35;1.20;;;16.40;53.60;;;;;;4954620;28;20023;-73
2021/03/17 09:28:33;;;;;;;2.45;0.90;;;16.40;53.70;;;;;;4937034;29;20471;-73
2021/03/17 09:31:08;;;;;;;2.17;0.90;;;16.30;53.70;;;;;;4954537;29;20055;-74
2021/03/17 09:33:37;;;;;;;2.92;1.00;;;16.30;53.70;;;;;;4937226;29;20031;-73
2021/03/17 09:36:14;;;;;;;3.40;1.05;;;16.40;53.80;;;;;;4954386;28;20077;-74
2021/03/17 09:38:49;;;;;;;2.83;0.98;;;16.40;53.70;;;;;;4954628;29;20467;-73
2021/03/17 09:41:46;;;;;;;3.67;0.90;;;16.40;53.70;;;;;;4954419;29;20032;-74
2021/03/17 09:44:13;;;;;;;2.85;1.00;;;16.30;53.80;;;;;;4953932;29;20031;-74
2021/03/17 09:46:41;;;;;;;1.88;0.80;;;16.40;53.70;;;;;;4937056;29;20038;-74
2021/03/17 09:49:13;;;;;;;1.85;1.00;;;16.50;53.60;;;;;;4937335;29;20024;-73
2021/03/17 09:51:45;;;;;;;2.92;0.98;;;16.50;53.40;;;;;;4937092;29;20034;-73
2021/03/17 09:54:14;;;;;;;4.03;1.25;;;16.60;53.20;;;;;;4937099;29;20027;-73
2021/03/17 09:56:40;;;;;;;4.15;1.00;;;16.50;53.20;;;;;;4921354;29;20023;-73
2021/03/17 09:59:21;;;;;;;2.13;0.98;;;16.50;53.30;;;;;;4954145;29;20050;-73
2021/03/17 10:02:14;;;;;;;;;;;16.40;53.30;;;;;;4954513;29;20027;-73
2021/03/17 10:04:43;;;;;;;4.55;1.20;;;16.40;53.50;;;;;;4936866;29;19950;-73
2021/03/17 10:07:15;;;;;;;2.85;1.00;;;16.60;53.30;;;;;;4937086;29;20059;-73
2021/03/17 10:09:42;;;;;;;4.35;0.90;;;16.70;52.90;;;;;;4954391;29;20023;-73
2021/03/17 10:12:12;;;;;;;4.00;1.02;;;16.70;52.60;;;;;;4936942;29;20031;-73
2021/03/17 10:14:46;;;;;;;2.22;0.90;;;16.70;52.70;;;;;;4956844;28;20058;-73
2021/03/17 10:17:14;;;;;;;4.65;0.90;;;16.70;52.60;;;;;;4957444;28;20039;-73
2021/03/17 10:19:40;;;;;;;1.92;0.75;;;16.60;52.70;;;;;;4957454;29;20435;-72
2021/03/17 10:22:07;;;;;;;2.47;0.70;;;16.50;52.90;;;;;;4957416;29;20443;-73
2021/03/17 10:24:37;;;;;;;2.58;0.85;;;16.40;53.10;;;;;;4940229;29;20023;-73
2021/03/17 10:27:07;;;;;;;3.17;1.00;;;16.40;53.40;;;;;;4939790;29;20055;-73
2021/03/17 10:29:33;;;;;;;3.33;1.00;;;16.30;53.30;;;;;;4957336;29;20023;-73
2021/03/17 10:32:00;;;;;;;3.08;1.00;;;16.30;53.60;;;;;;4940052;29;20030;-73
2021/03/17 10:34:28;;;;;;;1.98;0.77;;;16.20;53.70;;;;;;4940254;29;20051;-73
2021/03/17 10:36:56;;;;;;;2.72;0.70;;;16.20;53.70;;;;;;4939945;29;20358;-73
2021/03/17 10:39:33;;;;;;;1.80;0.60;;;16.30;53.70;;;;;;4939840;29;20038;-73
2021/03/17 10:42:00;;;;;;;2.33;0.80;;;16.20;53.60;;;;;;4955632;29;20035;-73
2021/03/17 10:44:28;;;;;;;2.08;0.70;;;16.20;53.60;;;;;;4955922;29;20027;-74
2021/03/17 10:47:10;;;;;;;2.28;0.95;;;16.20;53.60;;;;;;4939589;29;20089;-73
2021/03/17 10:49:49;;;;;;;2.17;0.70;;;16.20;53.50;;;;;;4957218;29;20171;-73
2021/03/17 10:52:14;;;;;;;3.08;0.80;;;16.20;53.60;;;;;;4953769;29;20032;-73
2021/03/17 10:54:43;;;;;;;3.50;1.00;;;16.20;53.10;;;;;;4956872;29;20027;-73
2021/03/17 10:57:09;;;;;;;2.47;0.70;;;16.20;53.70;;;;;;4956806;28;20093;-73
2021/03/17 10:59:38;;;;;;;2.67;0.80;;;16.20;53.00;;;;;;4956756;29;20430;-74
2021/03/17 11:02:16;;;;;;;1.42;0.60;;;16.20;52.90;;;;;;4957022;29;20027;-74
2021/03/17 11:05:03;;;;;;;4.60;0.90;;;16.30;52.70;;;;;;4956808;29;20038;-73
2021/03/17 11:07:49;;;;;;;2.33;0.70;;;16.30;52.70;;;;;;4956537;29;20028;-74
2021/03/17 11:10:42;;;;;;;2.50;0.90;;;16.40;52.80;;;;;;4956890;29;20071;-74
2021/03/17 11:13:08;;;;;;;3.40;0.90;;;16.40;52.80;;;;;;4956728;29;20016;-74
2021/03/17 11:15:34;;;;;;;3.80;0.75;;;16.50;52.80;;;;;;4956295;28;20422;-74
2021/03/17 11:17:59;;;;;;;1.17;0.70;;;16.50;52.50;;;;;;4956375;29;20027;-73
2021/03/17 11:20:26;;;;;;;2.97;0.80;;;16.50;52.50;;;;;;4939064;29;20063;-74
2021/03/17 11:22:53;;;;;;;3.35;0.80;;;16.50;52.60;;;;;;4956358;29;20106;-74
2021/03/17 11:25:25;;;;;;;2.30;0.80;;;16.50;52.50;;;;;;4955488;28;20023;-74
2021/03/17 11:27:53;;;;;;;2.28;0.80;;;16.50;52.40;;;;;;4938703;29;20054;-74
2021/03/17 11:30:19;;;;;;;2.63;0.90;;;16.50;52.60;;;;;;4956373;29;20110;-74
2021/03/17 11:32:45;;;;;;;1.95;0.70;;;16.40;52.40;;;;;;4956295;29;20042;-74
2021/03/17 11:35:13;;;;;;;2.42;0.70;;;16.40;52.70;;;;;;4938814;28;20123;-73
2021/03/17 11:37:39;;;;;;;2.42;0.63;;;16.40;52.70;;;;;;4956017;29;20027;-73
2021/03/17 11:40:07;;;;;;;3.28;0.65;;;16.30;53.30;;;;;;4938725;29;20038;-73
2021/03/17 11:42:33;;;;;;;2.85;1.02;;;16.30;52.80;;;;;;4955838;29;20031;-73
2021/03/17 11:44:59;;;;;;;1.52;0.60;;;16.30;53.00;;;;;;4938870;29;20031;-73
2021/03/17 11:47:25;;;;;;;1.83;0.63;;;16.30;52.70;;;;;;4938630;29;20478;-73
2021/03/17 11:49:50;;;;;;;2.40;0.90;;;16.30;52.90;;;;;;4955688;29;20104;-74
2021/03/17 11:52:16;;;;;;;2.13;0.73;;;16.30;52.90;;;;;;4955993;29;20035;-73
2021/03/17 11:54:41;;;;;;;3.17;0.70;;;16.20;52.90;;;;;;4938553;29;20492;-73
2021/03/17 11:57:07;;;;;;;2.08;0.80;;;16.30;52.80;;;;;;4955647;28;20027;-73
2021/03/17 11:59:33;;;;;;;2.75;0.80;;;16.20;52.90;;;;;;4955643;29;20085;-74
2021/03/17 12:01:58;;;;;;;1.15;0.57;;;16.20;53.00;;;;;;4955633;29;20035;-74
2021/03/17 12:04:24;;;;;;;1.85;0.68;;;16.20;53.10;;;;;;4955711;29;20103;-74
2021/03/17 12:06:49;;;;;;;4.00;1.08;;;16.20;53.20;;;;;;4955875;28;20036;-74
2021/03/17 12:09:15;;;;;;;2.40;0.75;;;16.20;53.00;;;;;;4955554;29;20027;-74
2021/03/17 12:11:41;;;;;;;1.80;0.70;;;16.20;53.20;;;;;;4955720;29;20046;-74
2021/03/17 12:14:08;;;;;;;1.40;0.75;;;16.20;52.90;;;;;;4955713;29;20023;-74
2021/03/17 12:16:34;;;;;;;2.45;0.60;;;16.20;52.80;;;;;;4955347;28;20023;-74
2021/03/17 12:19:00;;;;;;;2.60;0.70;;;16.20;53.00;;;;;;4955477;29;20034;-74
2021/03/17 12:21:25;;;;;;;2.75;0.95;;;16.20;52.70;;;;;;4955607;29;20027;-72
2021/03/17 12:23:51;;;;;;;1.40;0.63;;;16.30;53.00;;;;;;4955129;29;20067;-73
2021/03/17 12:26:17;;;;;;;3.65;0.70;;;16.30;52.80;;;;;;4955067;28;20055;-72
2021/03/17 12:28:43;;;;;;;1.63;0.57;;;16.30;52.70;;;;;;4955041;29;20024;-73
2021/03/17 12:31:09;;;;;;;3.85;0.70;;;16.20;52.50;;;;;;4955216;29;20097;-73
2021/03/17 12:33:34;;;;;;;1.85;0.63;;;16.30;52.50;;;;;;4955204;29;20420;-73
2021/03/17 12:36:01;;;;;;;2.83;0.80;;;16.30;52.40;;;;;;4954989;28;20046;-73
2021/03/17 12:38:27;;;;;;;2.72;0.75;;;16.20;52.60;;;;;;4955312;29;20494;-72
2021/03/17 12:40:53;;;;;;;1.77;0.80;;;16.20;52.40;;;;;;4955024;29;20032;-73
2021/03/17 12:43:19;;;;;;;2.50;0.70;;;16.30;52.20;;;;;;4937760;29;20042;-73
2021/03/17 12:45:45;;;;;;;1.73;0.65;;;16.40;52.00;;;;;;4937728;29;20027;-73
2021/03/17 12:48:14;;;;;;;2.50;0.93;;;16.40;51.90;;;;;;4937979;29;20077;-73
2021/03/17 12:50:41;;;;;;;2.08;0.77;;;16.40;52.00;;;;;;4954885;29;20047;-73
2021/03/17 12:53:07;;;;;;;2.17;0.70;;;16.30;51.90;;;;;;4955123;29;20023;-73
2021/03/17 12:55:34;;;;;;;2.08;0.70;;;16.40;52.10;;;;;;4937558;29;20130;-73
2021/03/17 12:58:00;;;;;;;1.98;0.70;;;16.30;51.80;;;;;;4954605;29;20034;-73
2021/03/17 13:00:28;;;;;;;2.60;0.80;;;16.30;52.00;;;;;;4937526;29;20023;-73
2021/03/17 13:02:54;;;;;;;1.40;0.60;;;16.40;51.70;;;;;;4937510;29;20397;-73